createdAt,value
2023-01-10T00:02:36.510Z,4.97
2023-01-10T00:07:39.282Z,4.87
2023-01-10T00:12:59.518Z,5.10
2023-01-10T00:18:03.918Z,4.68
2023-01-10T00:23:07.024Z,4.66
2023-01-10T00:28:19.668Z,4.60
2023-01-10T00:33:24.947Z,4.38
2023-01-10T00:38:27.721Z,4.21
2023-01-10T00:43:48.005Z,4.48
2023-01-10T00:48:52.735Z,4.06
2023-01-10T00:53:55.517Z,4.15
2023-01-10T00:58:58.261Z,3.63
2023-01-10T01:04:02.353Z,4.29
2023-01-10T01:09:05.152Z,3.94
2023-01-10T01:14:07.883Z,4.34
2023-01-10T01:19:12.474Z,4.27
2023-01-10T01:24:15.257Z,4.31
2023-01-10T01:29:18.201Z,4.47
2023-01-10T01:34:22.568Z,4.27
2023-01-10T01:39:25.609Z,4.04
2023-01-10T01:44:32.727Z,4.50
2023-01-10T01:49:41.289Z,4.05
2023-01-10T01:54:44.063Z,4.11
2023-01-10T01:59:49.153Z,4.00
2023-01-10T02:04:55.513Z,3.94
2023-01-10T02:10:02.309Z,3.68
2023-01-10T02:15:06.052Z,3.46
2023-01-10T02:20:13.731Z,3.56
2023-01-10T02:25:47.793Z,3.85
2023-01-10T02:31:11.443Z,4.15
2023-01-10T02:36:37.673Z,4.06
2023-01-10T02:41:46.418Z,4.16
2023-01-10T02:46:50.350Z,3.96
2023-01-10T02:51:54.773Z,3.87
2023-01-10T02:57:15.217Z,3.99
2023-01-10T03:02:27.784Z,4.06
2023-01-10T03:07:38.424Z,4.08
2023-01-10T03:12:46.214Z,4.31
2023-01-10T03:17:53.285Z,4.19
2023-01-10T03:22:57.539Z,4.12
2023-01-10T03:28:06.945Z,4.40
2023-01-10T03:33:11.502Z,4.25
2023-01-10T03:38:23.083Z,4.26
2023-01-10T03:43:51.092Z,4.10
2023-01-10T03:48:55.045Z,3.87
2023-01-10T03:54:00.898Z,4.14
2023-01-10T03:59:03.628Z,4.05
2023-01-10T04:04:06.675Z,4.15
2023-01-10T04:09:11.103Z,4.11
2023-01-10T04:14:13.832Z,4.17
2023-01-10T04:19:16.627Z,3.98
2023-01-10T04:24:20.765Z,4.35
2023-01-10T04:29:23.539Z,4.08
2023-01-10T04:34:26.302Z,3.98
2023-01-10T04:39:30.464Z,4.48
2023-01-10T04:44:33.232Z,4.23
2023-01-10T04:49:36.041Z,3.97
2023-01-10T04:54:40.138Z,3.91
2023-01-10T04:59:42.954Z,3.91
2023-01-10T05:04:45.803Z,4.15
2023-01-10T05:09:49.924Z,4.27
2023-01-10T05:14:52.694Z,4.20
2023-01-10T05:19:55.461Z,4.58
2023-01-10T05:24:59.558Z,4.28
2023-01-10T05:30:02.332Z,4.54
2023-01-10T05:35:05.756Z,4.45
2023-01-10T05:40:11.389Z,4.44
2023-01-10T05:45:14.142Z,4.19
2023-01-10T05:50:18.975Z,4.36
2023-01-10T05:55:23.219Z,4.30
2023-01-10T06:00:26.959Z,4.63
2023-01-10T06:05:29.728Z,4.43
2023-01-10T06:10:33.913Z,4.29
2023-01-10T06:15:37.333Z,4.52
2023-01-10T06:20:40.212Z,4.58
2023-01-10T06:25:44.363Z,4.31
2023-01-10T06:30:47.188Z,4.15
2023-01-10T06:35:50.067Z,4.18
2023-01-10T06:40:54.233Z,4.64
2023-01-10T06:45:57.079Z,4.34
2023-01-10T06:50:59.947Z,4.28
2023-01-10T06:56:05.918Z,4.53
2023-01-10T07:01:14.735Z,4.64
2023-01-10T07:06:17.717Z,4.82
2023-01-10T07:11:21.980Z,4.65
2023-01-10T07:16:24.864Z,4.83
2023-01-10T07:21:27.926Z,4.80
2023-01-10T07:26:32.089Z,4.75
2023-01-10T07:31:34.973Z,4.71
2023-01-10T07:36:39.466Z,4.56
2023-01-10T07:41:43.713Z,4.52
2023-01-10T07:46:51.467Z,4.60
2023-01-10T07:51:54.769Z,4.66
2023-01-10T07:56:58.893Z,4.29
2023-01-10T08:02:01.745Z,4.65
2023-01-10T08:07:04.629Z,4.57
2023-01-10T08:12:08.931Z,4.96
2023-01-10T08:17:11.695Z,4.80
2023-01-10T08:22:14.500Z,4.55
2023-01-10T08:27:18.780Z,4.55
2023-01-10T08:32:22.439Z,4.59
2023-01-10T08:37:25.292Z,4.52
2023-01-10T08:42:29.535Z,4.50
2023-01-10T08:47:32.304Z,4.47
2023-01-10T08:52:35.162Z,4.56
2023-01-10T08:57:39.394Z,4.27
2023-01-10T09:02:42.352Z,4.17
2023-01-10T09:07:46.352Z,4.64
2023-01-10T09:12:56.162Z,4.67
2023-01-10T09:18:01.382Z,4.70
2023-01-10T09:23:08.459Z,4.68
2023-01-10T09:28:12.724Z,4.66
2023-01-10T09:33:15.847Z,5.00
2023-01-10T09:38:22.264Z,5.26
2023-01-10T09:43:36.282Z,5.53
2023-01-10T09:48:48.950Z,5.25
2023-01-10T09:53:57.801Z,5.15
2023-01-10T09:59:04.800Z,5.39
2023-01-10T10:04:20.787Z,5.16
2023-01-10T10:09:26.508Z,5.14
2023-01-10T10:14:52.464Z,5.31
2023-01-10T10:20:11.007Z,5.38
2023-01-10T10:25:34.893Z,5.54
2023-01-10T10:30:53.053Z,5.45
2023-01-10T10:36:01.092Z,5.25
2023-01-10T10:41:04.313Z,5.12
2023-01-10T10:46:10.707Z,5.54
2023-01-10T10:51:17.998Z,5.80
2023-01-10T10:56:24.063Z,5.82
2023-01-10T11:01:28.702Z,5.71
2023-01-10T11:06:34.191Z,5.59
2023-01-10T11:11:41.823Z,5.50
2023-01-10T11:16:45.960Z,5.54
2023-01-10T11:21:53.358Z,5.54
2023-01-10T11:26:57.724Z,5.33
2023-01-10T11:32:10.542Z,5.69
2023-01-10T11:37:21.560Z,5.75
2023-01-10T11:42:30.689Z,5.88
2023-01-10T11:47:41.697Z,5.94
2023-01-10T11:52:49.628Z,5.84
2023-01-10T11:57:59.881Z,6.12
2023-01-10T12:03:14.921Z,7.00
2023-01-10T12:08:26.523Z,7.14
2023-01-10T12:13:30.640Z,6.55
2023-01-10T12:18:34.810Z,6.07
2023-01-10T12:23:41.476Z,6.91
2023-01-10T12:28:52.095Z,7.09
2023-01-10T12:34:02.441Z,6.36
2023-01-10T12:39:16.418Z,5.90
2023-01-10T12:44:27.779Z,5.97
2023-01-10T12:49:36.873Z,6.20
2023-01-10T12:54:39.738Z,6.29
2023-01-10T12:59:46.247Z,6.28
2023-01-10T13:04:54.304Z,6.05
2023-01-10T13:09:57.427Z,6.04
2023-01-10T13:15:06.190Z,6.06
2023-01-10T13:20:37.037Z,6.25
2023-01-10T13:25:39.970Z,6.53
2023-01-10T13:30:42.922Z,6.27
2023-01-10T13:35:48.950Z,6.69
2023-01-10T13:41:00.977Z,6.18
2023-01-10T13:46:35.000Z,6.11
2023-01-10T13:51:40.205Z,6.10
2023-01-10T13:56:44.603Z,6.29
2023-01-10T14:02:10.282Z,6.55
2023-01-10T14:07:22.923Z,6.48
2023-01-10T14:12:30.119Z,6.38
2023-01-10T14:17:34.869Z,6.14
2023-01-10T14:22:40.427Z,6.17
2023-01-10T14:27:46.413Z,6.47
2023-01-10T14:32:52.149Z,6.22
2023-01-10T14:37:58.505Z,6.23
2023-01-10T14:43:05.657Z,6.36
2023-01-10T14:48:27.163Z,6.04
2023-01-10T14:53:31.868Z,6.14
2023-01-10T14:58:34.595Z,6.27
2023-01-10T15:03:38.578Z,6.17
2023-01-10T15:08:42.927Z,6.10
2023-01-10T15:13:51.444Z,6.12
2023-01-10T15:18:56.453Z,6.04
2023-01-10T15:24:00.626Z,6.06
2023-01-10T15:29:10.265Z,6.12
2023-01-10T15:34:19.462Z,6.07
2023-01-10T15:39:26.187Z,6.10
2023-01-10T15:44:40.861Z,6.02
2023-01-10T15:49:53.977Z,5.87
2023-01-10T15:54:58.107Z,5.71
2023-01-10T16:00:01.170Z,5.82
2023-01-10T16:05:11.333Z,5.62
2023-01-10T16:10:21.389Z,5.94
2023-01-10T16:15:26.275Z,5.90
2023-01-10T16:20:31.635Z,5.64
2023-01-10T16:25:39.621Z,5.67
2023-01-10T16:30:46.499Z,5.90
2023-01-10T16:35:50.811Z,5.74
2023-01-10T16:40:58.212Z,5.82
2023-01-10T16:46:01.084Z,5.74
2023-01-10T16:51:16.849Z,5.81
2023-01-10T16:56:24.926Z,5.53
2023-01-10T17:01:31.752Z,5.97
2023-01-10T17:06:35.577Z,5.84
2023-01-10T17:11:43.080Z,5.84
2023-01-10T17:16:46.268Z,5.82
2023-01-10T17:21:49.061Z,5.68
2023-01-10T17:26:53.386Z,5.76
2023-01-10T17:31:56.273Z,5.81
2023-01-10T17:36:59.086Z,5.74
2023-01-10T17:42:03.342Z,5.79
2023-01-10T17:47:06.199Z,5.62
2023-01-10T17:52:09.100Z,5.97
2023-01-10T17:57:14.791Z,5.37
2023-01-10T18:02:19.286Z,5.37
2023-01-10T18:07:22.167Z,5.38
2023-01-10T18:12:26.391Z,5.15
2023-01-10T18:17:29.372Z,5.30
2023-01-10T18:22:49.822Z,5.41
2023-01-10T18:27:55.306Z,5.45
2023-01-10T18:32:58.142Z,5.65
2023-01-10T18:38:01.047Z,5.72
2023-01-10T18:43:05.290Z,5.76
2023-01-10T18:48:08.086Z,5.48
2023-01-10T18:53:10.963Z,5.56
2023-01-10T18:58:15.166Z,5.67
2023-01-10T19:03:18.136Z,5.72
2023-01-10T19:08:20.911Z,5.54
2023-01-10T19:13:25.150Z,5.35
2023-01-10T19:18:28.316Z,5.03
2023-01-10T19:23:31.390Z,5.02
2023-01-10T19:28:35.842Z,4.57
2023-01-10T19:33:39.102Z,4.55
2023-01-10T19:38:41.965Z,4.61
2023-01-10T19:43:46.109Z,4.53
2023-01-10T19:48:48.980Z,4.63
2023-01-10T19:53:52.268Z,4.31
2023-01-10T19:58:56.663Z,4.41
2023-01-10T20:04:02.154Z,4.42
2023-01-10T20:09:06.059Z,4.40
2023-01-10T20:14:14.466Z,4.37
2023-01-10T20:19:17.414Z,4.28
2023-01-10T20:24:21.762Z,4.51
2023-01-10T20:29:26.117Z,4.43
2023-01-10T20:34:29.668Z,4.61
2023-01-10T20:39:32.974Z,4.53
2023-01-10T20:44:37.270Z,4.37
2023-01-10T20:49:40.042Z,4.59
2023-01-10T20:54:42.951Z,4.57
2023-01-10T20:59:47.146Z,4.64
2023-01-10T21:04:50.731Z,4.49
2023-01-10T21:09:53.625Z,4.75
2023-01-10T21:14:57.924Z,4.70
2023-01-10T21:20:00.753Z,4.87
2023-01-10T21:25:03.973Z,4.96
2023-01-10T21:30:10.405Z,4.67
2023-01-10T21:35:13.175Z,4.87
2023-01-10T21:40:16.330Z,4.82
2023-01-10T21:45:21.094Z,4.82
2023-01-10T21:50:23.951Z,4.97
2023-01-10T21:55:27.428Z,5.13
2023-01-10T22:00:31.993Z,4.93
2023-01-10T22:05:34.920Z,5.01
2023-01-10T22:10:37.787Z,4.54
2023-01-10T22:15:43.343Z,4.70
2023-01-10T22:20:46.269Z,4.58
2023-01-10T22:25:59.008Z,4.58
2023-01-10T22:31:03.234Z,4.68
2023-01-10T22:36:06.573Z,4.57
2023-01-10T22:41:10.823Z,5.01
2023-01-10T22:46:16.451Z,4.75
2023-01-10T22:51:21.101Z,4.97
2023-01-10T22:56:25.372Z,4.83
2023-01-10T23:01:29.612Z,5.18
2023-01-10T23:06:32.576Z,4.96
2023-01-10T23:11:35.404Z,5.13
2023-01-10T23:16:39.656Z,5.53
2023-01-10T23:21:42.515Z,5.70
2023-01-10T23:26:45.275Z,5.61
2023-01-10T23:31:49.827Z,5.70
2023-01-10T23:36:52.635Z,5.80
2023-01-10T23:41:55.436Z,5.81
2023-01-10T23:46:59.583Z,5.51
2023-01-10T23:52:02.461Z,5.60
2023-01-10T23:57:05.228Z,5.45
